Aérodrome :
LOGIN :

S'inscrire | Disclaimer

   EN    FR    IT 

 










Légende :    VFR   VFR Marginal   IFR   IFR Intensif   IFR Très Intensif
Visi : 
Plafond : 
>= 8 km
>= 3000ft
5 à 8 km
1000 à 3000 ft
1500m à 5 km
500 à 1000 ft
800 à 1500m
200 à 500 ft
< 800m
< 200 ft
Symboles :   Orages  Brouillard  Fortes neiges  Fortes précipitations  Vent > 20 kt
SIGMETs :   Divers  Orages  Givrage  Turbulence  Onde Orograph.  Cendres Volcan.







- Altitude de l'aérodrome : 392 ft
- Code IATA : CDG
- Voir les cartes d'approche


LFPG - Paris-Aeroport Charles De Gaulle

DERNIER METAR :
  • 200530Z 14005KT 130V250 CAVOK 20/12 Q1010 NOSIG

METARs EXPIRÉS :
  • 200500Z 14005KT CAVOK 20/12 Q1010 NOSIG
  • 200430Z 15004KT CAVOK 19/12 Q1010 NOSIG
  • 200400Z 15003KT CAVOK 19/12 Q1010 NOSIG
  • 200330Z 16004KT CAVOK 19/12 Q1010 NOSIG
  • 200300Z 15006KT CAVOK 19/12 Q1010 NOSIG

TAF TAF LFPG
Valide du 20 à 06h jusqu'au 21 à 12h UTC


200500Z 2006/2112 22010KT CAVOK TX28/2015Z TN16/2105Z
TEMPO 2011/2017 24015G25KT
PROB40
TEMPO 2011/2015 4000 SHRA SCT040TCU
PROB30
TEMPO 2013/2015 26015G35KT TSRA SCT040CB
BECMG 2018/2020 30005KT
ATIS : +33 1 48 62 10 92
Pas de NOTAMs connus pour ce terrain.
1 SIGMET publié pour la FIR Paris (LFFF) :
 
Orages noyés dans la masse
LFFF SIGMET 2 VALID 200400/200600 LFPW
LFFF PARIS FIR/UIR EMBD TS OBS AT 0400Z WI N5100 E00145 - N5115 E00200 - N5030 E00330 - N5015 E00100 - N5100 E00145 TOP FL350 MOV E 20KT NC=



MET'MAP, la Météo Aéronautique d'un coup d'oeil ! - Copyright ORBIFLY Décembre 2007 - Disclaimer

ORBIFLY MET'MAP TEAM :

Programmation & Développement : Alexandra Zaïnal
Conception & Développement : Baudouin d'Aumeries
Co-Programmation & Développement : Marc-Olivier Méhu
Soutien technique & logistique : Manuel Goepfert

Contact : metmap@orbifly.com




SOURCES & CREDITS :

   NOAA